createdAt,value
2023-05-14T00:00:27.142Z,7.68
2023-05-14T00:02:54.288Z,7.18
2023-05-14T00:05:20.977Z,13.25
2023-05-14T00:07:47.629Z,16.10
2023-05-14T00:10:14.109Z,11.65
2023-05-14T00:12:40.874Z,11.55
2023-05-14T00:15:08.092Z,8.75
2023-05-14T00:17:34.533Z,8.88
2023-05-14T00:20:01.260Z,6.72
2023-05-14T00:22:27.655Z,6.97
2023-05-14T00:24:54.098Z,6.25
2023-05-14T00:27:20.511Z,7.47
2023-05-14T00:29:46.929Z,11.65
2023-05-14T00:32:13.336Z,8.40
2023-05-14T00:34:39.734Z,10.20
2023-05-14T00:37:06.222Z,8.50
2023-05-14T00:39:32.732Z,9.18
2023-05-14T00:41:59.247Z,8.43
2023-05-14T00:44:25.766Z,7.15
2023-05-14T00:46:52.942Z,6.13
2023-05-14T00:49:19.646Z,6.68
2023-05-14T00:51:47.093Z,6.40
2023-05-14T00:54:17.061Z,6.53
2023-05-14T00:56:45.902Z,7.13
2023-05-14T00:59:13.228Z,7.88
2023-05-14T01:01:40.093Z,6.82
2023-05-14T01:04:07.682Z,7.85
2023-05-14T01:06:47.435Z,7.65
2023-05-14T01:09:22.238Z,8.15
2023-05-14T01:12:03.110Z,6.30
2023-05-14T01:14:43.258Z,5.78
2023-05-14T01:17:13.145Z,6.70
2023-05-14T01:19:44.494Z,7.35
2023-05-14T01:22:11.750Z,7.25
2023-05-14T01:24:38.356Z,8.32
2023-05-14T01:27:13.228Z,6.78
2023-05-14T01:29:45.244Z,5.90
2023-05-14T01:32:13.448Z,6.45
2023-05-14T01:34:40.480Z,8.02
2023-05-14T01:37:09.400Z,10.05
2023-05-14T01:39:37.918Z,9.88
2023-05-14T01:42:05.194Z,7.10
2023-05-14T01:44:32.658Z,6.75
2023-05-14T01:46:59.149Z,6.57
2023-05-14T01:49:25.603Z,5.63
2023-05-14T01:51:52.034Z,10.57
2023-05-14T01:54:18.446Z,9.18
2023-05-14T01:56:44.899Z,8.13
2023-05-14T01:59:11.362Z,7.10
2023-05-14T02:01:37.839Z,7.20
2023-05-14T02:04:04.564Z,6.35
2023-05-14T02:06:32.175Z,6.47
2023-05-14T02:08:58.981Z,7.95
2023-05-14T02:11:26.196Z,7.45
2023-05-14T02:13:52.624Z,6.20
2023-05-14T02:16:19.326Z,7.85
2023-05-14T02:18:45.928Z,7.03
2023-05-14T02:21:12.424Z,6.70
2023-05-14T02:23:41.891Z,7.03
2023-05-14T02:26:10.011Z,7.03
2023-05-14T02:28:36.513Z,6.60
2023-05-14T02:31:03.196Z,6.93
2023-05-14T02:33:29.809Z,6.53
2023-05-14T02:35:56.363Z,6.50
2023-05-14T02:38:23.347Z,6.78
2023-05-14T02:40:49.943Z,6.75
2023-05-14T02:43:16.368Z,7.65
2023-05-14T02:45:43.019Z,7.38
2023-05-14T02:48:09.449Z,7.82
2023-05-14T02:50:35.871Z,7.75
2023-05-14T02:53:02.284Z,6.00
2023-05-14T02:55:28.792Z,6.22
2023-05-14T02:57:55.268Z,6.90
2023-05-14T03:00:22.052Z,7.28
2023-05-14T03:02:49.004Z,8.13
2023-05-14T03:05:15.817Z,11.38
2023-05-14T03:07:42.207Z,15.13
2023-05-14T03:10:09.099Z,14.18
2023-05-14T03:12:35.669Z,8.70
2023-05-14T03:15:02.186Z,11.45
2023-05-14T03:17:28.666Z,12.48
2023-05-14T03:19:55.093Z,10.90
2023-05-14T03:22:21.874Z,8.85
2023-05-14T03:24:48.254Z,8.00
2023-05-14T03:27:14.701Z,7.47
2023-05-14T03:29:41.108Z,6.53
2023-05-14T03:32:07.573Z,6.47
2023-05-14T03:34:34.164Z,7.15
2023-05-14T03:37:00.601Z,9.02
2023-05-14T03:39:26.990Z,6.63
2023-05-14T03:41:53.572Z,6.50
2023-05-14T03:44:19.965Z,6.57
2023-05-14T03:46:46.358Z,8.88
2023-05-14T03:49:12.853Z,7.78
2023-05-14T03:51:39.534Z,7.35
2023-05-14T03:54:06.998Z,7.38
2023-05-14T03:56:33.462Z,8.57
2023-05-14T03:58:59.848Z,9.65
2023-05-14T04:01:26.247Z,7.63
2023-05-14T04:03:52.793Z,7.55
2023-05-14T04:06:19.395Z,6.68
2023-05-14T04:08:45.823Z,12.35
2023-05-14T04:11:12.263Z,10.38
2023-05-14T04:13:38.706Z,14.60
2023-05-14T04:16:05.630Z,10.65
2023-05-14T04:18:35.276Z,8.85
2023-05-14T04:21:02.234Z,8.20
2023-05-14T04:23:29.683Z,7.07
2023-05-14T04:25:56.120Z,7.90
2023-05-14T04:28:22.567Z,11.02
2023-05-14T04:30:49.332Z,8.95
2023-05-14T04:33:15.732Z,7.85
2023-05-14T04:35:42.157Z,7.07
2023-05-14T04:38:09.107Z,5.80
2023-05-14T04:40:35.671Z,6.80
2023-05-14T04:43:02.068Z,6.00
2023-05-14T04:45:28.559Z,14.07
2023-05-14T04:47:55.095Z,10.10
2023-05-14T04:50:22.062Z,18.63
2023-05-14T04:52:48.780Z,19.08
2023-05-14T04:55:15.283Z,10.85
2023-05-14T04:57:41.722Z,10.30
2023-05-14T05:00:09.963Z,9.82
2023-05-14T05:02:36.457Z,8.90
2023-05-14T05:05:04.065Z,11.63
2023-05-14T05:07:30.624Z,13.38
2023-05-14T05:09:56.993Z,11.75
2023-05-14T05:12:23.381Z,8.90
2023-05-14T05:14:49.777Z,8.23
2023-05-14T05:17:16.154Z,8.55
2023-05-14T05:19:44.104Z,13.30
2023-05-14T05:22:10.914Z,9.90
2023-05-14T05:24:37.559Z,9.45
2023-05-14T05:27:05.395Z,9.85
2023-05-14T05:29:32.016Z,8.80
2023-05-14T05:31:58.985Z,17.48
2023-05-14T05:34:25.416Z,11.00
2023-05-14T05:36:51.782Z,17.20
2023-05-14T05:39:18.219Z,18.17
2023-05-14T05:41:44.741Z,16.63
2023-05-14T05:44:11.236Z,18.17
2023-05-14T05:46:37.797Z,17.58
2023-05-14T05:49:04.423Z,16.35
2023-05-14T05:51:31.459Z,18.00
2023-05-14T05:53:57.895Z,19.73
2023-05-14T05:56:24.262Z,18.70
2023-05-14T05:58:50.672Z,19.00
2023-05-14T06:01:17.061Z,18.75
2023-05-14T06:03:43.821Z,19.00
2023-05-14T06:06:11.247Z,18.08
2023-05-14T06:08:37.680Z,18.00
2023-05-14T06:11:04.623Z,17.25
2023-05-14T06:13:31.029Z,18.98
2023-05-14T06:15:57.489Z,19.30
2023-05-14T06:18:23.972Z,17.63
2023-05-14T06:20:50.427Z,17.67
2023-05-14T06:23:16.868Z,18.88
2023-05-14T06:25:43.358Z,19.80
2023-05-14T06:28:09.834Z,17.83
2023-05-14T06:30:36.234Z,17.02
2023-05-14T06:33:02.689Z,17.33
2023-05-14T06:35:29.229Z,15.88
2023-05-14T06:37:55.798Z,16.00
2023-05-14T06:40:22.591Z,11.35
2023-05-14T06:42:49.388Z,16.17
2023-05-14T06:45:15.862Z,16.17
2023-05-14T06:47:42.396Z,16.45
2023-05-14T06:50:10.814Z,14.93
2023-05-14T06:52:37.727Z,11.65
2023-05-14T06:55:04.392Z,14.05
2023-05-14T06:57:30.840Z,10.85
2023-05-14T06:59:57.479Z,14.00
2023-05-14T07:02:24.050Z,9.90
2023-05-14T07:04:50.500Z,11.30
2023-05-14T07:07:20.544Z,13.27
2023-05-14T07:09:47.636Z,12.27
2023-05-14T07:12:14.139Z,9.43
2023-05-14T07:14:40.552Z,11.27
2023-05-14T07:17:07.054Z,9.95
2023-05-14T07:19:33.523Z,13.07
2023-05-14T07:21:59.940Z,9.05
2023-05-14T07:24:26.420Z,12.70
2023-05-14T07:26:54.262Z,11.10
2023-05-14T07:29:30.317Z,11.57
2023-05-14T07:31:56.790Z,9.80
2023-05-14T07:34:23.186Z,13.45
2023-05-14T07:36:49.684Z,14.52
2023-05-14T07:39:16.092Z,15.30
2023-05-14T07:41:42.493Z,11.32
2023-05-14T07:44:09.079Z,15.18
2023-05-14T07:46:36.597Z,15.55
2023-05-14T07:49:03.243Z,15.20
2023-05-14T07:51:30.342Z,12.50
2023-05-14T07:53:56.738Z,14.75
2023-05-14T07:56:23.313Z,14.95
2023-05-14T07:58:51.011Z,10.48
2023-05-14T08:01:17.813Z,10.38
2023-05-14T08:03:44.315Z,13.07
2023-05-14T08:06:10.848Z,15.65
2023-05-14T08:08:37.331Z,15.68
2023-05-14T08:11:04.012Z,16.65
2023-05-14T08:13:30.503Z,12.43
2023-05-14T08:15:56.888Z,15.90
2023-05-14T08:18:23.312Z,15.57
2023-05-14T08:20:49.706Z,14.57
2023-05-14T08:23:16.138Z,13.10
2023-05-14T08:25:42.547Z,15.25
2023-05-14T08:28:09.052Z,14.98
2023-05-14T08:30:35.685Z,12.05
2023-05-14T08:33:02.354Z,14.02
2023-05-14T08:35:28.918Z,15.88
2023-05-14T08:37:56.835Z,15.43
2023-05-14T08:40:23.757Z,14.82
2023-05-14T08:42:51.474Z,12.80
2023-05-14T08:45:25.573Z,10.10
2023-05-14T08:47:52.092Z,10.77
2023-05-14T08:50:22.575Z,14.35
2023-05-14T08:52:49.847Z,13.43
2023-05-14T08:55:16.252Z,13.88
2023-05-14T08:57:42.713Z,12.30
2023-05-14T09:00:12.410Z,14.52
2023-05-14T09:02:44.442Z,13.60
2023-05-14T09:05:10.996Z,14.20
2023-05-14T09:07:37.408Z,10.27
2023-05-14T09:10:04.687Z,12.85
2023-05-14T09:12:31.352Z,14.93
2023-05-14T09:14:57.777Z,12.40
2023-05-14T09:17:27.864Z,14.43
2023-05-14T09:19:54.591Z,15.02
2023-05-14T09:22:21.142Z,12.98
2023-05-14T09:25:02.554Z,11.50
2023-05-14T09:27:31.769Z,10.70
2023-05-14T09:30:11.486Z,9.38
2023-05-14T09:32:40.291Z,11.30
2023-05-14T09:35:17.068Z,10.93
2023-05-14T09:37:45.420Z,9.60
2023-05-14T09:40:13.265Z,10.23
2023-05-14T09:42:40.804Z,9.52
2023-05-14T09:45:09.562Z,12.10
2023-05-14T09:47:37.627Z,12.07
2023-05-14T09:50:05.688Z,11.90
2023-05-14T09:52:32.693Z,9.32
2023-05-14T09:55:00.186Z,13.00
2023-05-14T09:57:27.233Z,13.73
2023-05-14T09:59:54.138Z,12.80
2023-05-14T10:02:36.808Z,15.02
2023-05-14T10:05:05.896Z,11.88
2023-05-14T10:07:41.688Z,12.35
2023-05-14T10:10:13.605Z,13.32
2023-05-14T10:12:40.739Z,11.55
2023-05-14T10:15:16.632Z,11.65
2023-05-14T10:17:55.402Z,13.48
2023-05-14T10:20:23.421Z,16.92
2023-05-14T10:22:51.124Z,11.73
2023-05-14T10:25:18.118Z,8.23
2023-05-14T10:27:45.152Z,7.55
2023-05-14T10:30:12.841Z,6.28
2023-05-14T10:32:41.846Z,8.55
2023-05-14T10:35:22.777Z,7.50
2023-05-14T10:37:51.783Z,7.60
2023-05-14T10:40:19.181Z,7.10
2023-05-14T10:42:46.618Z,9.02
2023-05-14T10:45:14.836Z,8.27
2023-05-14T10:47:48.308Z,7.95
2023-05-14T10:50:16.076Z,9.88
2023-05-14T10:52:43.872Z,7.75
2023-05-14T10:55:14.267Z,8.57
2023-05-14T10:57:43.463Z,8.70
2023-05-14T11:00:11.194Z,6.00
2023-05-14T11:02:40.618Z,9.20
2023-05-14T11:05:13.799Z,7.45
2023-05-14T11:07:48.090Z,6.85
2023-05-14T11:10:19.483Z,7.55
2023-05-14T11:12:48.005Z,5.88
2023-05-14T11:15:16.935Z,7.60
2023-05-14T11:17:44.956Z,7.20
2023-05-14T11:20:12.319Z,5.97
2023-05-14T11:22:40.765Z,5.88
2023-05-14T11:25:08.612Z,5.75
2023-05-14T11:27:36.689Z,6.22
2023-05-14T11:30:03.898Z,5.78
2023-05-14T11:32:33.136Z,4.90
2023-05-14T11:34:59.574Z,5.35
2023-05-14T11:37:26.028Z,3.92
2023-05-14T11:39:54.655Z,3.85
2023-05-14T11:42:22.406Z,3.40
2023-05-14T11:44:51.572Z,3.15
2023-05-14T11:47:19.697Z,2.95
2023-05-14T11:49:47.031Z,3.83
2023-05-14T11:52:15.369Z,4.18
2023-05-14T11:54:43.711Z,3.05
2023-05-14T11:57:15.503Z,4.18
2023-05-14T11:59:42.310Z,5.63
2023-05-14T12:02:11.983Z,4.93
2023-05-14T12:04:38.803Z,4.60
2023-05-14T12:07:10.133Z,4.50
2023-05-14T12:09:39.368Z,4.30
2023-05-14T12:12:11.319Z,6.53
2023-05-14T12:14:42.681Z,5.07
2023-05-14T12:17:15.019Z,7.28
2023-05-14T12:19:43.123Z,6.05
2023-05-14T12:22:11.402Z,4.28
2023-05-14T12:24:39.187Z,5.00
2023-05-14T12:27:07.306Z,5.05
2023-05-14T12:29:38.926Z,4.45
2023-05-14T12:32:09.812Z,4.80
2023-05-14T12:34:38.012Z,4.70
2023-05-14T12:37:05.560Z,4.70
2023-05-14T12:39:33.726Z,4.68
2023-05-14T12:42:00.422Z,5.68
2023-05-14T12:44:28.076Z,6.07
2023-05-14T12:46:54.830Z,6.05
2023-05-14T12:49:21.243Z,6.10
2023-05-14T12:51:47.666Z,6.88
2023-05-14T12:54:15.774Z,5.88
2023-05-14T12:56:42.383Z,5.80
2023-05-14T12:59:09.567Z,6.50
2023-05-14T13:01:36.845Z,5.10
2023-05-14T13:04:03.741Z,5.00
2023-05-14T13:06:31.778Z,5.28
2023-05-14T13:09:00.161Z,5.15
2023-05-14T13:11:27.216Z,4.13
2023-05-14T13:13:53.646Z,3.70
2023-05-14T13:16:20.133Z,3.50
2023-05-14T13:18:46.656Z,4.47
2023-05-14T13:21:13.111Z,4.30
2023-05-14T13:23:39.616Z,4.65
2023-05-14T13:26:06.199Z,4.65
2023-05-14T13:28:32.649Z,4.32
2023-05-14T13:31:10.652Z,3.90
2023-05-14T13:33:40.085Z,3.22
2023-05-14T13:36:08.016Z,5.32
2023-05-14T13:38:34.823Z,4.03
2023-05-14T13:41:03.991Z,4.18
2023-05-14T13:43:34.693Z,4.10
2023-05-14T13:46:02.260Z,3.50
2023-05-14T13:48:28.984Z,3.95
2023-05-14T13:50:55.430Z,3.63
2023-05-14T13:53:23.082Z,3.42
2023-05-14T13:55:50.555Z,3.00
2023-05-14T13:58:17.276Z,3.90
2023-05-14T14:00:43.714Z,3.25
2023-05-14T14:03:10.146Z,2.65
2023-05-14T14:05:36.765Z,4.45
2023-05-14T14:08:13.198Z,4.00
2023-05-14T14:10:49.000Z,2.80
2023-05-14T14:13:15.470Z,3.20
2023-05-14T14:15:42.518Z,3.03
2023-05-14T14:18:09.000Z,3.08
2023-05-14T14:20:35.426Z,2.97
2023-05-14T14:23:01.952Z,3.38
2023-05-14T14:25:28.360Z,3.25
2023-05-14T14:27:54.848Z,5.38
2023-05-14T14:30:21.367Z,4.00
2023-05-14T14:32:49.230Z,3.63
2023-05-14T14:35:17.880Z,4.25
2023-05-14T14:37:48.886Z,3.38
2023-05-14T14:40:16.538Z,3.13
2023-05-14T14:42:43.527Z,2.80
2023-05-14T14:45:10.735Z,2.78
2023-05-14T14:47:37.605Z,2.75
2023-05-14T14:50:04.863Z,3.10
2023-05-14T14:52:31.420Z,2.72
2023-05-14T14:54:57.966Z,2.85
2023-05-14T14:57:24.448Z,4.55
2023-05-14T14:59:50.887Z,3.35
2023-05-14T15:02:17.475Z,3.30
2023-05-14T15:04:44.041Z,2.67
2023-05-14T15:07:11.157Z,3.17
2023-05-14T15:09:37.674Z,4.35
2023-05-14T15:12:04.436Z,4.68
2023-05-14T15:14:30.834Z,3.78
2023-05-14T15:16:57.250Z,3.63
2023-05-14T15:19:23.656Z,3.20
2023-05-14T15:21:50.153Z,3.13
2023-05-14T15:24:16.585Z,3.25
2023-05-14T15:26:43.014Z,3.30
2023-05-14T15:29:09.474Z,3.05
2023-05-14T15:34:16.259Z,2.67
2023-05-14T15:36:42.691Z,4.20
2023-05-14T15:39:10.371Z,3.47
2023-05-14T15:41:37.082Z,3.10
2023-05-14T15:44:03.650Z,3.38
2023-05-14T15:46:30.944Z,2.90
2023-05-14T15:48:57.897Z,2.47
2023-05-14T15:51:24.373Z,2.92
2023-05-14T15:53:52.971Z,3.10
2023-05-14T15:56:19.657Z,2.72
2023-05-14T15:58:46.060Z,2.80
2023-05-14T16:01:12.584Z,3.70
2023-05-14T16:03:39.065Z,3.30
2023-05-14T16:06:06.009Z,3.30
2023-05-14T16:08:36.187Z,3.00
2023-05-14T16:11:04.516Z,5.18
2023-05-14T16:13:30.980Z,4.20
2023-05-14T16:15:59.400Z,3.40
2023-05-14T16:18:26.315Z,3.28
2023-05-14T16:20:53.414Z,3.65
2023-05-14T16:23:19.814Z,4.55
2023-05-14T16:25:46.329Z,3.30
2023-05-14T16:28:13.376Z,4.00
2023-05-14T16:30:39.829Z,3.38
2023-05-14T16:33:06.489Z,3.20
2023-05-14T16:35:36.190Z,3.67
2023-05-14T16:38:02.693Z,3.42
2023-05-14T16:40:29.087Z,3.50
2023-05-14T16:42:55.495Z,3.42
2023-05-14T16:45:22.075Z,3.65
2023-05-14T16:47:48.706Z,4.00
2023-05-14T16:50:15.377Z,4.88
2023-05-14T16:52:41.813Z,3.85
2023-05-14T16:55:08.744Z,4.97
2023-05-14T16:57:35.240Z,4.32
2023-05-14T17:00:04.467Z,3.70
2023-05-14T17:02:31.142Z,3.20
2023-05-14T17:04:59.019Z,3.38
2023-05-14T17:07:25.671Z,3.67
2023-05-14T17:09:52.143Z,3.40
2023-05-14T17:12:18.542Z,3.28
2023-05-14T17:14:45.112Z,3.58
2023-05-14T17:17:11.540Z,5.18
2023-05-14T17:19:37.964Z,3.97
2023-05-14T17:22:05.851Z,3.40
2023-05-14T17:24:32.313Z,3.28
2023-05-14T17:26:59.027Z,4.95
2023-05-14T17:29:25.680Z,3.35
2023-05-14T17:31:52.270Z,3.90
2023-05-14T17:34:18.930Z,3.05
2023-05-14T17:36:45.921Z,3.65
2023-05-14T17:39:12.451Z,3.45
2023-05-14T17:41:39.295Z,4.18
2023-05-14T17:44:05.769Z,3.05
2023-05-14T17:46:33.566Z,3.95
2023-05-14T17:49:00.189Z,3.60
2023-05-14T17:51:26.678Z,3.30
2023-05-14T17:53:53.277Z,2.65
2023-05-14T17:56:19.823Z,2.83
2023-05-14T17:58:46.524Z,3.75
2023-05-14T18:01:13.018Z,3.55
2023-05-14T18:03:39.480Z,3.17
2023-05-14T18:06:06.184Z,3.67
2023-05-14T18:08:32.604Z,2.80
2023-05-14T18:11:00.704Z,3.05
2023-05-14T18:13:27.361Z,2.60
2023-05-14T18:15:54.347Z,3.33
2023-05-14T18:18:21.735Z,2.50
2023-05-14T18:20:49.316Z,2.90
2023-05-14T18:23:15.929Z,3.03
2023-05-14T18:25:42.539Z,3.13
2023-05-14T18:28:09.498Z,3.80
2023-05-14T18:30:36.101Z,3.15
2023-05-14T18:33:02.632Z,3.17
2023-05-14T18:35:29.128Z,2.85
2023-05-14T18:37:55.608Z,3.03
2023-05-14T18:40:22.206Z,3.40
2023-05-14T18:42:48.660Z,3.25
2023-05-14T18:45:15.195Z,3.10
2023-05-14T18:47:41.728Z,3.03
2023-05-14T18:50:08.616Z,3.65
2023-05-14T18:52:35.304Z,3.10
2023-05-14T18:55:01.785Z,3.20
2023-05-14T18:57:29.361Z,3.38
2023-05-14T18:59:55.850Z,2.83
2023-05-14T19:02:24.477Z,2.80
2023-05-14T19:04:52.205Z,2.92
2023-05-14T19:07:20.111Z,2.58
2023-05-14T19:09:46.521Z,2.78
2023-05-14T19:12:13.341Z,2.90
2023-05-14T19:14:39.747Z,2.83
2023-05-14T19:17:06.282Z,2.97
2023-05-14T19:19:32.743Z,3.25
2023-05-14T19:21:59.223Z,4.80
2023-05-14T19:24:25.868Z,3.90
2023-05-14T19:26:52.521Z,3.60
2023-05-14T19:29:19.102Z,3.17
2023-05-14T19:31:45.555Z,2.72
2023-05-14T19:34:12.027Z,2.60
2023-05-14T19:36:38.518Z,2.47
2023-05-14T19:39:05.165Z,2.70
2023-05-14T19:41:31.625Z,2.72
2023-05-14T19:43:58.088Z,2.85
2023-05-14T19:46:24.612Z,2.63
2023-05-14T19:48:51.082Z,3.00
2023-05-14T19:51:17.522Z,2.90
2023-05-14T19:53:44.052Z,2.90
2023-05-14T19:56:10.855Z,3.40
2023-05-14T19:58:37.325Z,3.13
2023-05-14T20:01:04.345Z,2.75
2023-05-14T20:03:30.957Z,2.42
2023-05-14T20:05:57.940Z,2.60
2023-05-14T20:08:24.881Z,2.83
2023-05-14T20:10:51.421Z,2.97
2023-05-14T20:13:17.863Z,2.92
2023-05-14T20:15:44.339Z,2.90
2023-05-14T20:18:10.762Z,2.95
2023-05-14T20:20:37.370Z,3.03
2023-05-14T20:23:03.897Z,2.55
2023-05-14T20:25:32.880Z,2.92
2023-05-14T20:28:02.458Z,2.83
2023-05-14T20:30:28.938Z,3.17
2023-05-14T20:32:55.803Z,3.20
2023-05-14T20:35:22.250Z,2.78
2023-05-14T20:37:49.479Z,2.88
2023-05-14T20:40:15.981Z,2.60
2023-05-14T20:42:42.509Z,3.05
2023-05-14T20:45:09.464Z,2.50
2023-05-14T20:47:36.254Z,3.00
2023-05-14T20:50:02.873Z,3.40
2023-05-14T20:52:29.312Z,2.78
2023-05-14T20:54:55.734Z,3.10
2023-05-14T20:57:22.618Z,3.22
2023-05-14T20:59:49.090Z,2.70
2023-05-14T21:02:15.932Z,2.78
2023-05-14T21:04:42.818Z,3.03
2023-05-14T21:07:09.340Z,3.33
2023-05-14T21:09:35.757Z,3.30
2023-05-14T21:12:02.142Z,3.33
2023-05-14T21:14:28.563Z,3.20
2023-05-14T21:16:55.083Z,3.53
2023-05-14T21:19:22.838Z,3.95
2023-05-14T21:21:49.404Z,4.60
2023-05-14T21:24:16.778Z,4.80
2023-05-14T21:26:43.307Z,3.40
2023-05-14T21:29:09.769Z,4.70
2023-05-14T21:31:36.235Z,3.58
2023-05-14T21:34:02.832Z,3.72
2023-05-14T21:36:29.302Z,3.50
2023-05-14T21:38:55.781Z,3.42
2023-05-14T21:41:22.214Z,3.30
2023-05-14T21:43:48.600Z,3.72
2023-05-14T21:46:15.158Z,3.72
2023-05-14T21:48:41.783Z,3.70
2023-05-14T21:51:08.303Z,3.33
2023-05-14T21:53:34.862Z,4.28
2023-05-14T21:56:01.289Z,3.67
2023-05-14T21:58:28.043Z,4.32
2023-05-14T22:00:54.535Z,4.05
2023-05-14T22:03:21.030Z,4.07
2023-05-14T22:05:47.738Z,4.20
2023-05-14T22:08:14.154Z,4.70
2023-05-14T22:10:40.851Z,4.75
2023-05-14T22:13:07.310Z,4.28
2023-05-14T22:15:34.430Z,5.40
2023-05-14T22:18:00.978Z,4.13
2023-05-14T22:20:27.431Z,5.65
2023-05-14T22:22:53.974Z,4.32
2023-05-14T22:25:20.407Z,4.10
2023-05-14T22:27:46.843Z,4.22
2023-05-14T22:30:13.406Z,4.18
2023-05-14T22:32:39.876Z,4.72
2023-05-14T22:35:06.511Z,3.65
2023-05-14T22:37:32.973Z,3.88
2023-05-14T22:39:59.419Z,3.92
2023-05-14T22:42:27.214Z,7.80
2023-05-14T22:44:53.718Z,7.18
2023-05-14T22:47:20.225Z,7.28
2023-05-14T22:49:46.924Z,6.55
2023-05-14T22:52:13.385Z,6.10
2023-05-14T22:54:39.839Z,6.13
2023-05-14T22:57:06.693Z,5.70
2023-05-14T22:59:33.254Z,6.07
2023-05-14T23:02:01.260Z,6.45
2023-05-14T23:04:27.738Z,4.88
2023-05-14T23:06:54.177Z,4.95
2023-05-14T23:09:20.760Z,8.35
2023-05-14T23:11:47.344Z,6.43
2023-05-14T23:14:13.766Z,4.95
2023-05-14T23:16:40.196Z,5.75
2023-05-14T23:19:06.796Z,6.32
2023-05-14T23:21:33.430Z,5.30
2023-05-14T23:23:59.829Z,5.25
2023-05-14T23:26:26.252Z,8.52
2023-05-14T23:28:52.703Z,6.15
2023-05-14T23:31:19.146Z,6.25
2023-05-14T23:33:46.324Z,7.50
2023-05-14T23:36:12.877Z,6.38
2023-05-14T23:38:39.930Z,6.57
2023-05-14T23:41:06.346Z,7.47
2023-05-14T23:43:33.745Z,8.85
2023-05-14T23:46:00.642Z,10.77
2023-05-14T23:48:27.161Z,11.15
2023-05-14T23:50:53.683Z,9.02
2023-05-14T23:53:20.355Z,7.03
2023-05-14T23:55:47.085Z,11.43
2023-05-14T23:58:13.617Z,11.75
